Harvey, ND

2:41 PM CST on December 03, 2016 (GMT -0600)
Harvey

Weather History for K5H4 - March, 2014

Change the Weather History Date:

Wednesday, March 26, 2014

  Actual Average (KRUG) Record (KRUG)
Temperature  
Mean Temperature 26 °F -  
Max Temperature 35 °F 40 °F 65 °F (1973)
Min Temperature 17 °F 22 °F -18 °F (1964)
Degree Days  
Heating Degree Days 39    
Moisture  
Dew Point 16 °F    
Average Humidity 69    
Maximum Humidity 100    
Minimum Humidity 51    
Precipitation  
Precipitation 0.33 in - - ()
Sea Level Pressure  
Sea Level Pressure 29.64 in    
Wind  
Wind Speed 12 mph (ESE)    
Max Wind Speed 21 mph    
Max Gust Speed 24 mph    
Visibility 9 miles    
Events Snow    
Averages and records for this station are not official NWS values.
T = Trace of Precipitation, MM = Missing Value Source: NWS Daily Summary

Daily Weather History Graph

Daily Weather History Graph

Search for Another Location

Airport or City:

Trip Planner

Search our weather history database for the weather conditions in past years. The results will help you decide how hot, cold, wet, or windy it might be!

Date:

Astronomy

Mar. 26, 2014 Rise Set
Actual Time 7:30 AM CDT 8:01 PM CDT
Civil Twilight 6:59 AM CDT 8:32 PM CDT
Nautical Twilight 6:22 AM CDT 9:09 PM CDT
Astronomical Twilight 5:44 AM CDT 9:47 PM CDT
Moon 4:58 AM CDT (3/26) 3:24 PM CDT (3/26)
Length of Visible Light 13h 32m
Length of Day
12h 30m
Waning Crescent, 21% of the Moon is Illuminated
Mar 26
Waning Crescent
Mar 30
New
Apr 7
First Quarter
Apr 15
Full
Apr 22
Last Quarter

Hourly Weather History & Observations

Time (CDT) Temp. Windchill Dew Point Humidity Pressure Visibility Wind Dir Wind Speed Gust Speed Precip Events Conditions
12:15 AM 19.4 °F 9.5 °F 6.8 °F 58% 29.91 in 10.0 mi SE 8.1 mph - N/A   Clear
12:35 AM 19.4 °F 7.9 °F 8.6 °F 63% 29.91 in 10.0 mi SSE 10.4 mph - N/A   Clear
12:55 AM 19.4 °F 9.5 °F 8.6 °F 63% 29.89 in 10.0 mi SSE 8.1 mph - N/A   Clear
1:15 AM 17.6 °F 7.3 °F 8.6 °F 68% 29.88 in 10.0 mi SSE 8.1 mph - N/A   Clear
1:35 AM 17.6 °F 7.3 °F 10.4 °F 73% 29.88 in 10.0 mi SSE 8.1 mph - N/A   Clear
1:55 AM 17.6 °F 7.3 °F 8.6 °F 68% 29.86 in 10.0 mi SE 8.1 mph - N/A   Partly Cloudy
2:15 AM 19.4 °F 7.9 °F 8.6 °F 63% 29.85 in 10.0 mi SSE 10.4 mph - N/A   Clear
2:35 AM 19.4 °F 7.9 °F 10.4 °F 68% 29.84 in 10.0 mi SE 10.4 mph - N/A   Mostly Cloudy
2:55 AM 19.4 °F 8.6 °F 10.4 °F 68% 29.83 in 10.0 mi SSE 9.2 mph - N/A   Mostly Cloudy
3:15 AM 19.4 °F 7.9 °F 10.4 °F 68% 29.82 in 10.0 mi SSE 10.4 mph - N/A   Clear
3:35 AM 19.4 °F 8.6 °F 10.4 °F 68% 29.81 in 10.0 mi SE 9.2 mph - N/A   Clear
3:55 AM 19.4 °F 8.6 °F 8.6 °F 63% 29.79 in 10.0 mi SE 9.2 mph - N/A   Scattered Clouds
4:15 AM 19.4 °F 8.6 °F 10.4 °F 68% 29.78 in 10.0 mi ESE 9.2 mph - N/A   Partly Cloudy
4:35 AM 17.6 °F 7.3 °F 10.4 °F 73% 29.78 in 10.0 mi ESE 8.1 mph - N/A   Clear
4:55 AM 17.6 °F 7.3 °F 10.4 °F 73% 29.77 in 10.0 mi ESE 8.1 mph - N/A   Clear
5:15 AM 17.6 °F 5.7 °F 10.4 °F 73% 29.75 in 10.0 mi ESE 10.4 mph - N/A   Clear
5:35 AM 17.6 °F 5.7 °F 10.4 °F 73% 29.75 in 10.0 mi ESE 10.4 mph - N/A   Clear
5:55 AM 17.6 °F 5.0 °F 10.4 °F 73% 29.73 in 10.0 mi ESE 11.5 mph - N/A   Clear
6:15 AM 17.6 °F 5.0 °F 10.4 °F 73% 29.73 in 10.0 mi ESE 11.5 mph - N/A   Clear
6:35 AM 17.6 °F 5.0 °F 10.4 °F 73% 29.71 in 10.0 mi ESE 11.5 mph - N/A   Clear
6:55 AM 17.6 °F 4.3 °F 10.4 °F 73% 29.70 in 10.0 mi ESE 12.7 mph - N/A   Clear
7:15 AM 17.6 °F 5.0 °F 10.4 °F 73% 29.70 in 10.0 mi ESE 11.5 mph - N/A   Clear
7:35 AM 17.6 °F 3.2 °F 10.4 °F 73% 29.69 in 10.0 mi ESE 15.0 mph - N/A   Clear
7:55 AM 17.6 °F 3.7 °F 10.4 °F 73% 29.68 in 10.0 mi ESE 13.8 mph - N/A   Clear
8:15 AM 17.6 °F 4.3 °F 10.4 °F 73% 29.68 in 10.0 mi ESE 12.7 mph - N/A   Clear
8:35 AM 19.4 °F 5.5 °F 10.4 °F 68% 29.66 in 10.0 mi ESE 15.0 mph - N/A   Clear
8:55 AM 19.4 °F 4.1 °F 10.4 °F 68% 29.65 in 10.0 mi ESE 18.4 mph 23.0 mph N/A   Clear
9:15 AM 21.2 °F 6.4 °F 10.4 °F 63% 29.64 in 10.0 mi ESE 18.4 mph - N/A   Partly Cloudy
9:35 AM 23.0 °F 10.1 °F 10.4 °F 59% 29.65 in 10.0 mi SE 15.0 mph 23.0 mph N/A   Mostly Cloudy
9:55 AM 23.0 °F 9.6 °F 10.4 °F 59% 29.63 in 10.0 mi SE 16.1 mph 23.0 mph N/A   Mostly Cloudy
10:15 AM 23.0 °F 10.1 °F 12.2 °F 63% 29.61 in 10.0 mi ESE 15.0 mph 23.0 mph N/A   Mostly Cloudy
10:35 AM 24.8 °F 11.1 °F 12.2 °F 59% 29.59 in 10.0 mi SE 18.4 mph 23.0 mph N/A   Scattered Clouds
10:55 AM 24.8 °F 12.4 °F 12.2 °F 59% 29.60 in 10.0 mi SE 15.0 mph 21.9 mph N/A   Partly Cloudy
11:15 AM 26.6 °F 14.3 °F 14.0 °F 59% 29.58 in 10.0 mi SE 16.1 mph - N/A   Clear
11:35 AM 26.6 °F 13.8 °F 14.0 °F 59% 29.57 in 10.0 mi SE 17.3 mph 21.9 mph N/A   Clear
11:55 AM 28.4 °F 17.0 °F 14.0 °F 55% 29.55 in 10.0 mi SE 15.0 mph 19.6 mph N/A   Clear
12:15 PM 28.4 °F 17.5 °F 14.0 °F 55% 29.55 in 10.0 mi SE 13.8 mph 19.6 mph N/A   Clear
12:35 PM 30.2 °F 21.3 °F 15.8 °F 55% 29.54 in 10.0 mi SE 10.4 mph 20.7 mph N/A   Clear
12:55 PM 32.0 °F 22.1 °F 15.8 °F 51% 29.53 in 10.0 mi ESE 13.8 mph 17.3 mph N/A   Clear
1:15 PM 32.0 °F 23.0 °F 15.8 °F 51% 29.53 in 10.0 mi ESE 11.5 mph - N/A   Clear
1:35 PM 32.0 °F 23.6 °F 15.8 °F 51% 29.53 in 10.0 mi SE 10.4 mph - N/A   Clear
1:55 PM 32.0 °F 24.8 °F 15.8 °F 51% 29.54 in 10.0 mi SE 8.1 mph - N/A   Clear
2:15 PM 33.8 °F 25.8 °F 17.6 °F 52% 29.54 in 10.0 mi East 10.4 mph - N/A   Clear
2:35 PM 33.8 °F 27.0 °F 17.6 °F 52% 29.53 in 10.0 mi East 8.1 mph - N/A   Clear
2:55 PM 33.8 °F 25.3 °F 17.6 °F 52% 29.52 in 10.0 mi East 11.5 mph - N/A   Clear
3:15 PM 33.8 °F 25.3 °F 17.6 °F 52% 29.52 in 10.0 mi East 11.5 mph - N/A   Clear
3:35 PM 35.6 °F 27.1 °F 19.4 °F 52% 29.51 in 10.0 mi East 12.7 mph 16.1 mph N/A   Scattered Clouds
3:55 PM 35.6 °F 26.2 °F 19.4 °F 52% 29.51 in 10.0 mi East 15.0 mph - N/A   Scattered Clouds
4:15 PM 35.6 °F 26.2 °F 19.4 °F 52% 29.50 in 10.0 mi East 15.0 mph 19.6 mph N/A   Clear
4:35 PM 35.6 °F 26.6 °F 19.4 °F 52% 29.51 in 10.0 mi East 13.8 mph - N/A   Clear
4:55 PM 35.6 °F 26.6 °F 19.4 °F 52% 29.51 in 10.0 mi ENE 13.8 mph 17.3 mph N/A   Clear
5:15 PM 35.6 °F 27.1 °F 19.4 °F 52% 29.51 in 10.0 mi ENE 12.7 mph 18.4 mph N/A   Partly Cloudy
5:35 PM 35.6 °F 25.9 °F 19.4 °F 52% 29.51 in 10.0 mi ENE 16.1 mph - N/A   Clear
5:55 PM 33.8 °F 23.9 °F 21.2 °F 60% 29.52 in 10.0 mi ENE 15.0 mph - N/A   Clear
6:15 PM 32.0 °F 21.2 °F 23.0 °F 69% 29.53 in 10.0 mi ENE 16.1 mph - N/A   Partly Cloudy
6:35 PM 32.0 °F 22.1 °F 21.2 °F 64% 29.53 in 10.0 mi ENE 13.8 mph - N/A   Clear
6:55 PM 32.0 °F 22.1 °F 21.2 °F 64% 29.53 in 10.0 mi NE 13.8 mph - N/A   Clear
7:15 PM 32.0 °F 21.6 °F 23.0 °F 69% 29.55 in 10.0 mi NE 15.0 mph 20.7 mph N/A   Mostly Cloudy
7:35 PM 30.2 °F 17.4 °F 24.8 °F 80% 29.56 in 2.5 mi NE 20.7 mph - N/A Snow Light Snow
7:55 PM 26.6 °F 15.2 °F 26.6 °F 100% 29.57 in 0.8 mi NE 13.8 mph 21.9 mph 0.07 in Snow Light Snow
8:15 PM 26.6 °F 12.7 °F 26.6 °F 100% 29.57 in 0.5 mi NE 20.7 mph - 0.07 in Snow Snow
8:35 PM 26.6 °F 14.3 °F 26.6 °F 100% 29.57 in 1.5 mi NE 16.1 mph 23.0 mph 0.16 in Snow Light Snow
8:55 PM 26.6 °F 13.1 °F 26.6 °F 100% 29.58 in 1.8 mi NE 19.6 mph 24.2 mph 0.22 in Snow Light Snow
9:15 PM 24.8 °F 11.1 °F 24.8 °F 100% 29.58 in 2.5 mi NE 18.4 mph 24.2 mph 0.01 in Snow Light Snow
9:35 PM 24.8 °F 11.1 °F 24.8 °F 100% 29.59 in 4.0 mi NE 18.4 mph 23.0 mph 0.04 in Snow Light Snow
9:55 PM 24.8 °F 11.5 °F 24.8 °F 100% 29.60 in 5.0 mi NE 17.3 mph 23.0 mph 0.04 in Snow Light Snow
10:15 PM 24.8 °F 12.4 °F 24.8 °F 100% 29.61 in 5.0 mi NE 15.0 mph - N/A   Mostly Cloudy
10:35 PM 24.8 °F 11.9 °F 24.8 °F 100% 29.60 in 10.0 mi NE 16.1 mph 20.7 mph N/A   Overcast
10:55 PM 24.8 °F 11.1 °F 24.8 °F 100% 29.60 in 10.0 mi NE 18.4 mph - N/A   Overcast
11:15 PM 24.8 °F 11.9 °F 24.8 °F 100% 29.60 in 10.0 mi NE 16.1 mph 23.0 mph N/A   Overcast
11:35 PM 24.8 °F 11.9 °F 24.8 °F 100% 29.61 in 10.0 mi NE 16.1 mph 23.0 mph N/A   Overcast
11:55 PM 24.8 °F 12.9 °F 24.8 °F 100% 29.61 in 10.0 mi NE 13.8 mph 20.7 mph N/A   Overcast